Pittsford, VT

9:06 AM EDT on May 22, 2015 (GMT -0400)
Rutland State | | Change Station
CLOSE
Current Station
Airport
Location: Rutland,
Elevation: 787 ft
Nearby Weather Stations
Active Advisory: Frost Advisory Active Notice: Public Information Statement

Elev 787 ft 43.53 °N, 72.95 °W | Updated 11 minutes ago

Mostly Cloudy
Mostly Cloudy
57 °F
Feels Like 57 °F
N
8
Wind Variable Wind from SW

Today
High -- | Low -- °F
--% Chance of Precip.
Yesterday
High -- | Low -- °F
Precip. -- in
5:20 AM 8:17 PM
Waxing Crescent, 21% visible
Pressure 29.83 in
Visibility 10.0 miles
Clouds Few 8500 ft
Few 11000 ft
Dew Point 37 °F
Humidity 48%
Rainfall 0.00 in
Snow Depth Not available.
UV 4 out of 12
Pollen 9.30 out of 12
Air Quality Not available.
Flu Activity Local Activity
METAR KRUT 221255Z AUTO 23007KT 10SM FEW085 FEW110 14/03 A2983 RMK AO1

More Conditions Fewer Conditions

Pressure 29.83 in
Visibility 10.0 miles
Clouds Few 8500 ft
Few 11000 ft
Dew Point 37 °F
Humidity 48%
Rainfall 0.00 in
Snow Depth Not available.
UV 4 out of 12
Pollen 9.30 out of 12
Air Quality Not available.
Flu Activity Local Activity
METAR KRUT 221255Z AUTO 23007KT 10SM FEW085 FEW110 14/03 A2983 RMK AO1

More Conditions Fewer Conditions

10-Day Weather Forecast

Almanac

Astronomy

May. 22, 2015 Rise Set
Actual Time
Civil Twilight
Nautical Twilight
Astronomical Twilight
Moon
Length of Visible Light
Length of Day
Tomorrow will be .
, % of the Moon is Illuminated

Today's Extremes

State Highs State Lows

Community

WunderPhotos

Upload Photos

1,823,210 photos uploaded!

WunderBlogs® & News

Nearby

Air Quality

  Air Quality AQ Index Pollutant
Not available.

Snow Depth

Station Depth Elevation

Earthquake Activity

City Distance Mag. Time & Date
Minimum magnitude displayed is 2.5.

Coastal Water Temperatures

Place Temperature

Stations

Nearby Weather Stations

Station Location Temp. Windchill Dew Point Humidity Wind Precip. Elev Updated Type
                   
Frost Advisory
Statement as of 3:33 AM EDT on May 22, 2015

... Frost advisory in effect from midnight tonight to 8 am EDT
Saturday...

The National Weather Service in Burlington has issued a frost
advisory... which is in effect from midnight tonight to 8 am EDT
Saturday.

* Locations... the Champlain Valley of Vermont and New York...
including western Rutland County... and excluding Grand Isle
County.

* Hazards... near freezing temperatures.

* Temperatures... lows in the low to mid 30s.

* Timing... temperatures across the advisory area will fall to near
freezing between midnight and sunrise on Saturday.

* Impacts... damage to sensitive plants and vegetation is possible if
left unprotected.

Precautionary/preparedness actions...

A frost advisory means that frost is possible. Sensitive outdoor
plants may be killed if left uncovered.

Please stay tuned to NOAA Weather Radio... your local media... or
go to www.Weather.Gov/Burlington for further updates on this
weather situation.



Lahiff